Glendale, Indiana
Current Conditions -  °F | °C
As of 4:35 PM on Tuesday 21 Oct 2014 (Local Time) from KDCY Reporting Station
Broken Clouds Broken Clouds  
Wind Chill: 58°   Ceiling: 5500
Heat Index: 58°   Visibility: 10mi
Dew Point: 41°   Wind: 12mph
Humidity: 52%   Direction: 10°N
Pressure: 30.12"   Gusts: NA
Location:  38.6251°N, 87.0452°W
Report Text: KDCY 212135Z AUTO 01010KT 10SM BKN055 15/05 A3012 RMK AO2 T01460049
Loading
Personal Weather Stations






























Interactive Weather Map
Tropical Storm Tracking
New forecast layout! Learn more

10-Day Weather Forecast

Advertisements
Track Severe Weather on mobile